createdAt,value
2023-03-26T00:00:38.161Z,6.2485
2023-03-26T00:01:39.501Z,6.2518
2023-03-26T00:02:40.141Z,6.2510
2023-03-26T00:03:41.588Z,6.2502
2023-03-26T00:04:41.662Z,6.2463
2023-03-26T00:06:42.941Z,6.2342
2023-03-26T00:07:42.974Z,6.2287
2023-03-26T00:08:44.215Z,6.2241
2023-03-26T00:09:44.225Z,6.2225
2023-03-26T00:10:45.617Z,6.2228
2023-03-26T00:11:45.612Z,6.2241
2023-03-26T00:12:45.629Z,6.2261
2023-03-26T00:13:46.847Z,6.2285
2023-03-26T00:14:46.881Z,6.2333
2023-03-26T00:15:48.127Z,6.2394
2023-03-26T00:16:48.530Z,6.2474
2023-03-26T00:17:48.566Z,6.2533
2023-03-26T00:18:49.433Z,6.2598
2023-03-26T00:19:50.897Z,6.2700
2023-03-26T00:20:52.021Z,6.2813
2023-03-26T00:22:53.116Z,6.3073
2023-03-26T00:23:53.420Z,6.3172
2023-03-26T00:24:54.638Z,6.3262
2023-03-26T00:25:55.548Z,6.3312
2023-03-26T00:26:55.832Z,6.3345
2023-03-26T00:27:57.048Z,6.3382
2023-03-26T00:28:57.103Z,6.3415
2023-03-26T00:29:58.272Z,6.3443
2023-03-26T00:30:58.534Z,6.3476
2023-03-26T00:31:58.570Z,6.3513
2023-03-26T00:32:58.820Z,6.3541
2023-03-26T00:34:00.083Z,6.3558
2023-03-26T00:35:00.067Z,6.3564
2023-03-26T00:36:05.181Z,6.3587
2023-03-26T00:37:05.139Z,6.3604
2023-03-26T00:38:06.443Z,6.3642
2023-03-26T00:39:06.866Z,6.3642
2023-03-26T00:40:07.231Z,6.3615
2023-03-26T00:41:07.319Z,6.3528
2023-03-26T00:42:07.522Z,6.3406
2023-03-26T00:43:07.635Z,6.3259
2023-03-26T00:44:08.948Z,6.3104
2023-03-26T00:45:08.968Z,6.2920
2023-03-26T00:46:10.353Z,6.2755
2023-03-26T00:47:10.913Z,6.2621
2023-03-26T00:48:11.343Z,6.2491
2023-03-26T00:49:12.054Z,6.2312
2023-03-26T00:50:12.087Z,6.2238
2023-03-26T00:51:13.259Z,6.2187
2023-03-26T00:52:13.267Z,6.2155
2023-03-26T00:53:14.729Z,6.2140
2023-03-26T00:54:14.728Z,6.2140
2023-03-26T00:55:14.746Z,6.2153
2023-03-26T00:56:15.950Z,6.2177
2023-03-26T00:57:34.548Z,6.2194
2023-03-26T00:58:20.599Z,6.2131
2023-03-26T00:59:20.607Z,6.2114
2023-03-26T01:00:22.011Z,6.2030
2023-03-26T01:01:22.043Z,6.1917
2023-03-26T01:02:22.250Z,6.1784
2023-03-26T01:03:27.840Z,6.1606
2023-03-26T01:05:24.364Z,6.1331
2023-03-26T01:06:24.404Z,6.1273
2023-03-26T01:07:25.556Z,6.1203
2023-03-26T01:08:25.610Z,6.1136
2023-03-26T01:09:26.793Z,6.1069
2023-03-26T01:10:28.131Z,6.1017
2023-03-26T01:11:29.438Z,6.0945
2023-03-26T01:12:30.657Z,6.0881
2023-03-26T01:13:30.801Z,6.0785
2023-03-26T01:14:32.007Z,6.0648
2023-03-26T01:15:32.081Z,6.0456
2023-03-26T01:16:32.380Z,6.0203
2023-03-26T01:17:32.487Z,5.9943
2023-03-26T01:18:33.672Z,5.9652
2023-03-26T01:19:33.719Z,5.9344
2023-03-26T01:20:35.117Z,5.9011
2023-03-26T01:21:36.287Z,5.8692
2023-03-26T01:22:37.597Z,5.8341
2023-03-26T01:23:38.885Z,5.7997
2023-03-26T01:24:38.899Z,5.7680
2023-03-26T01:25:40.238Z,5.7344
2023-03-26T01:26:41.410Z,5.6985
2023-03-26T01:29:43.831Z,5.5893
2023-03-26T01:30:43.786Z,5.5530
2023-03-26T01:31:45.113Z,5.5128
2023-03-26T01:32:46.134Z,5.4733
2023-03-26T01:33:46.194Z,5.4353
2023-03-26T01:34:46.254Z,5.3963
2023-03-26T01:35:47.571Z,5.3557
2023-03-26T01:36:47.797Z,5.3220
2023-03-26T01:37:48.989Z,5.2942
2023-03-26T01:38:49.599Z,5.2682
2023-03-26T01:39:51.162Z,5.2456
2023-03-26T01:40:51.786Z,5.2269
2023-03-26T01:41:51.861Z,5.2113
2023-03-26T01:42:53.094Z,5.1995
2023-03-26T01:43:53.076Z,5.1932
2023-03-26T01:44:54.405Z,5.1882
2023-03-26T01:45:55.875Z,5.1853
2023-03-26T01:46:56.481Z,5.1847
2023-03-26T01:47:56.499Z,5.1868
2023-03-26T01:48:56.566Z,5.1903
2023-03-26T01:49:56.644Z,5.1940
2023-03-26T01:50:56.794Z,5.1992
2023-03-26T01:51:58.131Z,5.2089
2023-03-26T01:52:59.355Z,5.2192
2023-03-26T01:53:59.442Z,5.2288
2023-03-26T01:55:00.701Z,5.2349
2023-03-26T01:56:00.745Z,5.2378
2023-03-26T01:57:00.758Z,5.2384
2023-03-26T01:58:00.842Z,5.2359
2023-03-26T01:59:02.024Z,5.2288
2023-03-26T02:00:03.328Z,5.2148
2023-03-26T02:01:03.512Z,5.1935
2023-03-26T02:02:03.711Z,5.1681
2023-03-26T02:03:04.982Z,5.1397
2023-03-26T02:04:05.156Z,5.1093
2023-03-26T02:06:05.681Z,5.0564
2023-03-26T02:07:06.785Z,5.0418
2023-03-26T02:08:07.108Z,5.0396
2023-03-26T02:09:08.350Z,5.0493
2023-03-26T02:10:08.423Z,5.0625
2023-03-26T02:11:09.878Z,5.0787
2023-03-26T02:12:09.895Z,5.0941
2023-03-26T02:13:09.922Z,5.1146
2023-03-26T02:14:11.121Z,5.1394
2023-03-26T02:15:11.165Z,5.1704
2023-03-26T02:16:11.147Z,5.2021
2023-03-26T02:17:11.470Z,5.2268
2023-03-26T02:18:11.569Z,5.2414
2023-03-26T02:19:11.641Z,5.2502
2023-03-26T02:20:12.820Z,5.2518
2023-03-26T02:21:12.881Z,5.2469
2023-03-26T02:22:14.213Z,5.2408
2023-03-26T02:23:15.533Z,5.2365
2023-03-26T02:24:15.632Z,5.2358
2023-03-26T02:25:16.862Z,5.2372
2023-03-26T02:27:17.851Z,5.2444
2023-03-26T02:28:17.889Z,5.2480
2023-03-26T02:29:19.325Z,5.2570
2023-03-26T02:30:20.550Z,5.2711
2023-03-26T02:31:20.636Z,5.2846
2023-03-26T02:32:20.714Z,5.2992
2023-03-26T02:33:21.322Z,5.3164
2023-03-26T02:34:22.599Z,5.3309
2023-03-26T02:35:22.959Z,5.3419
2023-03-26T02:37:23.641Z,5.3601
2023-03-26T02:38:25.093Z,5.3692
2023-03-26T02:39:25.090Z,5.3769
2023-03-26T02:40:25.423Z,5.3833
2023-03-26T02:41:26.644Z,5.3902
2023-03-26T02:42:26.771Z,5.3962
2023-03-26T02:43:27.947Z,5.4021
2023-03-26T02:45:29.323Z,5.4155
2023-03-26T02:46:29.531Z,5.4245
2023-03-26T02:47:29.936Z,5.4386
2023-03-26T02:48:29.912Z,5.4533
2023-03-26T02:49:30.020Z,5.4686
2023-03-26T02:50:30.026Z,5.4823
2023-03-26T02:51:30.549Z,5.4986
2023-03-26T02:52:31.832Z,5.5166
2023-03-26T02:53:32.110Z,5.5365
2023-03-26T02:54:32.061Z,5.5523
2023-03-26T02:55:32.160Z,5.5634
2023-03-26T02:56:33.425Z,5.5727
2023-03-26T02:57:33.702Z,5.5813
2023-03-26T02:58:33.749Z,5.5918
2023-03-26T02:59:33.881Z,5.6044
2023-03-26T03:00:34.121Z,5.6154
2023-03-26T03:01:34.607Z,5.6242
2023-03-26T03:02:34.730Z,5.6323
2023-03-26T03:03:35.440Z,5.6390
2023-03-26T03:04:35.611Z,5.6453
2023-03-26T03:05:35.629Z,5.6523
2023-03-26T03:06:35.738Z,5.6583
2023-03-26T03:07:37.065Z,5.6650
2023-03-26T03:08:37.217Z,5.6729
2023-03-26T03:09:38.512Z,5.6797
2023-03-26T03:10:38.621Z,5.6855
2023-03-26T03:11:39.948Z,5.6912
2023-03-26T03:12:39.994Z,5.6938
2023-03-26T03:13:41.488Z,5.6954
2023-03-26T03:14:42.782Z,5.6967
2023-03-26T03:15:42.958Z,5.6981
2023-03-26T03:16:43.101Z,5.6984
2023-03-26T03:17:43.578Z,5.6985
2023-03-26T03:18:43.662Z,5.6971
2023-03-26T03:19:43.783Z,5.6946
2023-03-26T03:20:43.835Z,5.6920
2023-03-26T03:21:43.991Z,5.6886
2023-03-26T03:22:45.284Z,5.6873
2023-03-26T03:23:45.395Z,5.6859
2023-03-26T03:24:46.683Z,5.6833
2023-03-26T03:25:46.791Z,5.6790
2023-03-26T03:26:47.920Z,5.6739
2023-03-26T03:27:47.876Z,5.6699
2023-03-26T03:28:48.016Z,5.6646
2023-03-26T03:29:49.304Z,5.6555
2023-03-26T03:30:49.551Z,5.6430
2023-03-26T03:31:50.106Z,5.6313
2023-03-26T03:32:50.695Z,5.6207
2023-03-26T03:33:50.845Z,5.6072
2023-03-26T03:34:51.004Z,5.5950
2023-03-26T03:35:51.327Z,5.5821
2023-03-26T03:37:52.740Z,5.5554
2023-03-26T03:38:54.070Z,5.5428
2023-03-26T03:39:54.242Z,5.5321
2023-03-26T03:40:54.253Z,5.5177
2023-03-26T03:42:55.664Z,5.4992
2023-03-26T03:43:55.929Z,5.4909
2023-03-26T03:44:56.100Z,5.4812
2023-03-26T03:45:56.682Z,5.4733
2023-03-26T03:46:57.284Z,5.4651
2023-03-26T03:47:57.674Z,5.4580
2023-03-26T03:48:57.942Z,5.4506
2023-03-26T03:49:59.215Z,5.4440
2023-03-26T03:50:59.523Z,5.4371
2023-03-26T03:51:59.540Z,5.4323
2023-03-26T03:52:59.965Z,5.4268
2023-03-26T03:54:00.002Z,5.4235
2023-03-26T03:55:00.158Z,5.4203
2023-03-26T03:56:00.348Z,5.4194
2023-03-26T03:57:00.770Z,5.4193
2023-03-26T03:58:00.768Z,5.4199
2023-03-26T03:59:00.886Z,5.4202
2023-03-26T04:00:01.684Z,5.4207
2023-03-26T04:01:03.037Z,5.4207
2023-03-26T04:02:03.181Z,5.4234
2023-03-26T04:03:03.695Z,5.4239
2023-03-26T04:04:04.723Z,5.4232
2023-03-26T04:05:04.950Z,5.4229
2023-03-26T04:06:05.169Z,5.4223
2023-03-26T04:07:05.152Z,5.4213
2023-03-26T04:08:05.331Z,5.4207
2023-03-26T04:10:08.095Z,5.4201
2023-03-26T04:11:08.225Z,5.4185
2023-03-26T04:12:08.221Z,5.4182
2023-03-26T04:13:08.318Z,5.4186
2023-03-26T04:14:08.336Z,5.4201
2023-03-26T04:15:08.495Z,5.4198
2023-03-26T04:16:08.637Z,5.4189
2023-03-26T04:17:08.932Z,5.4179
2023-03-26T04:18:09.081Z,5.4181
2023-03-26T04:19:09.240Z,5.4180
2023-03-26T04:20:09.289Z,5.4188
2023-03-26T04:21:09.477Z,5.4197
2023-03-26T04:22:09.481Z,5.4194
2023-03-26T04:23:09.619Z,5.4191
2023-03-26T04:24:10.879Z,5.4190
2023-03-26T04:25:11.474Z,5.4169
2023-03-26T04:26:11.622Z,5.4148
2023-03-26T04:27:11.650Z,5.4132
2023-03-26T04:28:11.817Z,5.4127
2023-03-26T04:29:13.157Z,5.4106
2023-03-26T04:31:14.465Z,5.4088
2023-03-26T04:32:14.950Z,5.4113
2023-03-26T04:33:15.169Z,5.4160
2023-03-26T04:34:15.375Z,5.4214
2023-03-26T04:35:15.353Z,5.4253
2023-03-26T04:36:15.771Z,5.4263
2023-03-26T04:37:15.763Z,5.4268
2023-03-26T04:39:15.836Z,5.4286
2023-03-26T04:40:16.033Z,5.4297
2023-03-26T04:41:16.014Z,5.4307
2023-03-26T04:42:16.119Z,5.4301
2023-03-26T04:43:16.147Z,5.4284
2023-03-26T04:44:16.217Z,5.4268
2023-03-26T04:45:17.507Z,5.4270
2023-03-26T04:46:17.702Z,5.4282
2023-03-26T04:47:17.781Z,5.4301
2023-03-26T04:48:18.444Z,5.4312
2023-03-26T04:49:19.926Z,5.4325
2023-03-26T04:50:21.213Z,5.4333
2023-03-26T04:51:21.428Z,5.4342
2023-03-26T04:52:21.446Z,5.4354
2023-03-26T04:53:22.598Z,5.4361
2023-03-26T04:54:24.094Z,5.4353
2023-03-26T04:55:25.430Z,5.4346
2023-03-26T04:56:25.581Z,5.4332
2023-03-26T04:57:25.731Z,5.4334
2023-03-26T04:58:25.856Z,5.4316
2023-03-26T04:59:25.858Z,5.4298
2023-03-26T05:00:26.023Z,5.4287
2023-03-26T05:01:26.036Z,5.4262
2023-03-26T05:02:26.350Z,5.4212
2023-03-26T05:03:27.002Z,5.4182
2023-03-26T05:04:27.618Z,5.4134
2023-03-26T05:05:27.682Z,5.4108
2023-03-26T05:06:28.525Z,5.4089
2023-03-26T05:07:28.520Z,5.4083
2023-03-26T05:08:28.733Z,5.4060
2023-03-26T05:09:28.709Z,5.4051
2023-03-26T05:10:28.771Z,5.4049
2023-03-26T05:11:29.563Z,5.4048
2023-03-26T05:12:29.697Z,5.4065
2023-03-26T05:13:29.750Z,5.4086
2023-03-26T05:14:30.054Z,5.4082
2023-03-26T05:15:31.582Z,5.4083
2023-03-26T05:16:31.944Z,5.4089
2023-03-26T05:17:32.381Z,5.4097
2023-03-26T05:18:32.537Z,5.4117
2023-03-26T05:19:32.687Z,5.4145
2023-03-26T05:20:32.697Z,5.4187
2023-03-26T05:21:32.834Z,5.4230
2023-03-26T05:23:34.146Z,5.4344
2023-03-26T05:24:34.166Z,5.4388
2023-03-26T05:25:34.353Z,5.4432
2023-03-26T05:26:34.315Z,5.4462
2023-03-26T05:27:34.431Z,5.4490
2023-03-26T05:28:35.722Z,5.4505
2023-03-26T05:29:35.830Z,5.4515
2023-03-26T05:30:36.182Z,5.4518
2023-03-26T05:31:36.613Z,5.4512
2023-03-26T05:32:36.783Z,5.4503
2023-03-26T05:33:36.856Z,5.4508
2023-03-26T05:34:37.162Z,5.4513
2023-03-26T05:35:37.460Z,5.4552
2023-03-26T05:36:37.733Z,5.4591
2023-03-26T05:37:38.010Z,5.4617
2023-03-26T05:38:38.462Z,5.4644
2023-03-26T05:39:38.626Z,5.4660
2023-03-26T05:40:39.067Z,5.4703
2023-03-26T05:41:39.323Z,5.4757
2023-03-26T05:42:39.430Z,5.4807
2023-03-26T05:43:39.702Z,5.4872
2023-03-26T05:44:39.892Z,5.4946
2023-03-26T05:45:40.184Z,5.5020
2023-03-26T05:46:40.487Z,5.5088
2023-03-26T05:47:41.106Z,5.5179
2023-03-26T05:48:41.663Z,5.5266
2023-03-26T05:49:41.744Z,5.5328
2023-03-26T05:50:41.988Z,5.5410
2023-03-26T05:52:42.510Z,5.5583
2023-03-26T05:53:42.583Z,5.5666
2023-03-26T05:55:44.085Z,5.5846
2023-03-26T05:56:44.884Z,5.5909
2023-03-26T05:57:45.185Z,5.5951
2023-03-26T05:58:45.379Z,5.6009
2023-03-26T05:59:45.424Z,5.6059
2023-03-26T06:00:45.682Z,5.6112
2023-03-26T06:01:46.269Z,5.6173
2023-03-26T06:02:46.899Z,5.6252
2023-03-26T06:04:48.173Z,5.6343
2023-03-26T06:05:48.629Z,5.6394
2023-03-26T06:06:48.677Z,5.6442
2023-03-26T06:07:48.967Z,5.6521
2023-03-26T06:08:49.044Z,5.6611
2023-03-26T06:09:50.425Z,5.6682
2023-03-26T06:10:51.071Z,5.6824
2023-03-26T06:11:52.068Z,5.7037
2023-03-26T06:12:52.134Z,5.7298
2023-03-26T06:14:53.640Z,5.7927
2023-03-26T06:15:53.942Z,5.8236
2023-03-26T06:16:54.090Z,5.8496
2023-03-26T06:17:54.296Z,5.8756
2023-03-26T06:18:59.555Z,5.8950
2023-03-26T06:19:59.813Z,5.9073
2023-03-26T06:21:00.301Z,5.9156
2023-03-26T06:22:00.515Z,5.9194
2023-03-26T06:23:00.583Z,5.9208
2023-03-26T06:24:00.809Z,5.9229
2023-03-26T06:25:01.068Z,5.9282
2023-03-26T06:26:01.441Z,5.9343
2023-03-26T06:28:01.626Z,5.9476
2023-03-26T06:29:01.670Z,5.9488
2023-03-26T06:30:01.939Z,5.9520
2023-03-26T06:32:16.179Z,5.9574
2023-03-26T06:33:04.441Z,5.9552
2023-03-26T06:34:04.595Z,5.9616
2023-03-26T06:35:04.724Z,5.9689
2023-03-26T06:36:05.169Z,5.9776
2023-03-26T06:37:05.492Z,5.9890
2023-03-26T06:38:05.614Z,6.0017
2023-03-26T06:39:09.782Z,6.0122
2023-03-26T06:40:09.890Z,6.0220
2023-03-26T06:41:10.575Z,6.0318
2023-03-26T06:42:10.910Z,6.0411
2023-03-26T06:44:12.004Z,6.0443
2023-03-26T06:45:12.112Z,6.0496
2023-03-26T06:46:12.519Z,6.0532
2023-03-26T06:47:12.630Z,6.0572
2023-03-26T06:48:13.063Z,6.0566
2023-03-26T06:50:13.286Z,6.0524
2023-03-26T06:51:13.542Z,6.0501
2023-03-26T06:52:13.736Z,6.0479
2023-03-26T06:53:13.861Z,6.0465
2023-03-26T06:54:14.169Z,6.0459
2023-03-26T06:55:14.247Z,6.0462
2023-03-26T06:56:15.220Z,6.0429
2023-03-26T06:57:15.858Z,6.0382
2023-03-26T06:58:15.975Z,6.0356
2023-03-26T06:59:16.249Z,6.0336
2023-03-26T07:00:16.387Z,6.0313
2023-03-26T07:02:16.670Z,6.0379
2023-03-26T07:03:17.203Z,6.0463
2023-03-26T07:04:18.402Z,6.0554
2023-03-26T07:05:18.887Z,6.0647
2023-03-26T07:06:18.981Z,6.0764
2023-03-26T07:07:19.274Z,6.0883
2023-03-26T07:08:19.941Z,6.1036
2023-03-26T07:09:20.167Z,6.1208
2023-03-26T07:10:20.273Z,6.1383
2023-03-26T07:11:21.138Z,6.1584
2023-03-26T07:12:21.411Z,6.1813
2023-03-26T07:13:21.453Z,6.1986
2023-03-26T07:14:22.561Z,6.2132
2023-03-26T07:17:23.490Z,6.2639
2023-03-26T07:18:23.935Z,6.2851
2023-03-26T07:19:24.024Z,6.3139
2023-03-26T07:20:24.445Z,6.3477
2023-03-26T07:21:24.921Z,6.3817
2023-03-26T07:22:25.153Z,6.4104
2023-03-26T07:23:25.554Z,6.4293
2023-03-26T07:24:25.846Z,6.4432
2023-03-26T07:25:26.000Z,6.4505
2023-03-26T07:26:26.212Z,6.4558
2023-03-26T07:27:26.342Z,6.4620
2023-03-26T07:28:26.752Z,6.4680
2023-03-26T07:29:27.621Z,6.4748
2023-03-26T07:30:27.705Z,6.4847
2023-03-26T07:31:28.064Z,6.4980
2023-03-26T07:32:28.764Z,6.5121
2023-03-26T07:33:29.061Z,6.5260
2023-03-26T07:34:29.237Z,6.5371
2023-03-26T07:35:29.644Z,6.5461
2023-03-26T07:36:29.738Z,6.5480
2023-03-26T07:37:30.023Z,6.5456
2023-03-26T07:38:30.103Z,6.5384
2023-03-26T07:39:31.304Z,6.5323
2023-03-26T07:40:31.597Z,6.5272
2023-03-26T07:41:32.247Z,6.5231
2023-03-26T07:42:32.414Z,6.5184
2023-03-26T07:43:32.636Z,6.5156
2023-03-26T07:44:34.590Z,6.5178
2023-03-26T07:45:33.335Z,6.5293
2023-03-26T07:46:33.709Z,6.5472
2023-03-26T07:47:34.141Z,6.5656
2023-03-26T07:50:35.677Z,6.6081
2023-03-26T07:51:36.363Z,6.6224
2023-03-26T07:52:36.512Z,6.6374
2023-03-26T07:53:36.764Z,6.6526
2023-03-26T07:54:36.924Z,6.6740
2023-03-26T07:55:37.186Z,6.7055
2023-03-26T07:56:37.373Z,6.7385
2023-03-26T07:57:38.369Z,6.7749
2023-03-26T07:58:38.475Z,6.8215
2023-03-26T07:59:38.812Z,6.8690
2023-03-26T08:00:38.944Z,6.9078
2023-03-26T08:01:39.167Z,6.9397
2023-03-26T08:02:39.352Z,6.9667
2023-03-26T08:03:40.436Z,6.9905
2023-03-26T08:04:41.494Z,7.0094
2023-03-26T08:05:42.302Z,7.0253
2023-03-26T08:06:42.549Z,7.0334
2023-03-26T08:07:43.522Z,7.0330
2023-03-26T08:08:43.805Z,7.0251
2023-03-26T08:09:44.107Z,7.0110
2023-03-26T08:10:44.211Z,6.9953
2023-03-26T08:11:44.977Z,6.9831
2023-03-26T08:12:45.222Z,6.9805
2023-03-26T08:13:45.471Z,6.9915
2023-03-26T08:14:45.703Z,7.0140
2023-03-26T08:15:46.203Z,7.0362
2023-03-26T08:18:47.060Z,7.0552
2023-03-26T08:19:47.502Z,7.0433
2023-03-26T08:20:47.717Z,7.0237
2023-03-26T08:21:48.089Z,6.9986
2023-03-26T08:22:48.232Z,6.9718
2023-03-26T08:23:51.963Z,6.9463
2023-03-26T08:25:51.195Z,6.8877
2023-03-26T08:26:51.640Z,6.8661
2023-03-26T08:28:52.074Z,6.8362
2023-03-26T08:29:52.287Z,6.8128
2023-03-26T08:30:53.241Z,6.7932
2023-03-26T08:31:53.242Z,6.7760
2023-03-26T08:32:53.696Z,6.7663
2023-03-26T08:33:53.908Z,6.7600
2023-03-26T08:34:54.322Z,6.7569
2023-03-26T08:35:55.075Z,6.7564
2023-03-26T08:36:55.558Z,6.7575
2023-03-26T08:37:55.756Z,6.7609
2023-03-26T08:38:56.111Z,6.7641
2023-03-26T08:39:56.362Z,6.7727
2023-03-26T08:40:57.372Z,6.7935
2023-03-26T08:41:57.881Z,6.8361
2023-03-26T08:42:58.190Z,6.8964
2023-03-26T08:43:58.548Z,6.9708
2023-03-26T08:44:58.958Z,7.0710
2023-03-26T08:46:59.526Z,7.3364
2023-03-26T08:47:59.990Z,7.4742
2023-03-26T08:49:00.166Z,7.5945
2023-03-26T08:50:00.860Z,7.7165
2023-03-26T08:51:01.728Z,7.8474
2023-03-26T08:52:02.078Z,7.9835
2023-03-26T08:53:02.255Z,8.1126
2023-03-26T08:54:02.567Z,8.2278
2023-03-26T08:55:02.932Z,8.3280
2023-03-26T08:56:03.303Z,8.4035
2023-03-26T08:57:03.712Z,8.4465
2023-03-26T08:58:04.818Z,8.4647
2023-03-26T09:00:05.915Z,8.4211
2023-03-26T09:01:07.041Z,8.3788
2023-03-26T09:02:07.672Z,8.3327
2023-03-26T09:03:08.399Z,8.2742
2023-03-26T09:04:08.817Z,8.2031
2023-03-26T09:05:09.062Z,8.1157
2023-03-26T09:06:09.268Z,8.0227
2023-03-26T09:07:09.561Z,7.9286
2023-03-26T09:08:09.730Z,7.8389
2023-03-26T09:09:18.766Z,7.7477
2023-03-26T09:10:11.662Z,7.6560
2023-03-26T09:11:12.567Z,7.5833
2023-03-26T09:12:12.919Z,7.5198
2023-03-26T09:13:13.389Z,7.4624
2023-03-26T09:15:14.020Z,7.3734
2023-03-26T09:16:14.596Z,7.3330
2023-03-26T09:17:15.073Z,7.3025
2023-03-26T09:18:15.573Z,7.2788
2023-03-26T09:19:15.788Z,7.2606
2023-03-26T09:21:16.809Z,7.2750
2023-03-26T09:22:17.114Z,7.3436
2023-03-26T09:23:17.328Z,7.4850
2023-03-26T09:24:17.715Z,7.6952
2023-03-26T09:25:17.956Z,7.9384
2023-03-26T09:26:18.357Z,8.2348
2023-03-26T09:27:18.523Z,8.5647
2023-03-26T09:28:18.838Z,8.8620
2023-03-26T09:29:18.975Z,9.1536
2023-03-26T09:30:20.014Z,9.4310
2023-03-26T09:31:20.356Z,9.6719
2023-03-26T09:32:21.103Z,9.8742
2023-03-26T09:33:21.476Z,10.0374
2023-03-26T09:34:21.801Z,10.1437
2023-03-26T09:35:21.946Z,10.2158
2023-03-26T09:36:22.630Z,10.2664
2023-03-26T09:37:22.840Z,10.2939
2023-03-26T09:38:23.654Z,10.2995
2023-03-26T09:39:24.025Z,10.3100
2023-03-26T09:40:24.127Z,10.3413
2023-03-26T09:42:25.077Z,10.4218
2023-03-26T09:43:25.402Z,10.4337
2023-03-26T09:44:25.700Z,10.4349
2023-03-26T09:45:25.996Z,10.4201
2023-03-26T09:46:26.471Z,10.3909
2023-03-26T09:47:27.028Z,10.3446
2023-03-26T09:48:27.404Z,10.2779
2023-03-26T09:49:27.810Z,10.2190
2023-03-26T09:50:28.029Z,10.1863
2023-03-26T09:51:28.445Z,10.1801
2023-03-26T09:52:28.668Z,10.1982
2023-03-26T09:53:29.076Z,10.2411
2023-03-26T09:54:29.325Z,10.3083
2023-03-26T09:55:29.804Z,10.3821
2023-03-26T09:56:30.029Z,10.4489
2023-03-26T09:57:30.588Z,10.5011
2023-03-26T09:58:31.181Z,10.5455
2023-03-26T09:59:31.366Z,10.6110
2023-03-26T10:01:32.468Z,10.8111
2023-03-26T10:02:46.672Z,10.9198
2023-03-26T10:03:37.428Z,11.0072
2023-03-26T10:04:38.083Z,11.0578
2023-03-26T10:05:38.851Z,11.0999
2023-03-26T10:06:39.485Z,11.1355
2023-03-26T10:07:40.152Z,11.1585
2023-03-26T10:08:40.605Z,11.1748
2023-03-26T10:10:41.516Z,11.2089
2023-03-26T10:11:42.159Z,11.2587
2023-03-26T10:12:41.760Z,11.3269
2023-03-26T10:14:42.391Z,11.5162
2023-03-26T10:16:42.692Z,11.7609
2023-03-26T10:17:43.341Z,11.8569
2023-03-26T10:19:44.514Z,12.0130
2023-03-26T10:20:44.988Z,12.0953
2023-03-26T10:21:45.869Z,12.1718
2023-03-26T10:22:46.206Z,12.2520
2023-03-26T10:23:46.678Z,12.3311
2023-03-26T10:24:46.965Z,12.4040
2023-03-26T10:25:47.404Z,12.4553
2023-03-26T10:27:09.208Z,12.4918
2023-03-26T10:27:48.674Z,12.4864
2023-03-26T10:28:49.179Z,12.4624
2023-03-26T10:29:49.763Z,12.4305
2023-03-26T10:30:50.388Z,12.3839
2023-03-26T10:31:51.163Z,12.3185
2023-03-26T10:33:51.653Z,12.2255
2023-03-26T10:34:52.782Z,12.2101
2023-03-26T10:35:53.414Z,12.2204
2023-03-26T10:36:54.114Z,12.2281
2023-03-26T10:37:54.184Z,12.1954
2023-03-26T10:38:54.725Z,12.1528
2023-03-26T10:39:55.636Z,12.1145
2023-03-26T10:40:56.287Z,12.0853
2023-03-26T10:41:56.052Z,12.0456
2023-03-26T10:42:56.343Z,11.9799
2023-03-26T10:44:07.525Z,11.9110
2023-03-26T10:44:57.075Z,11.8357
2023-03-26T10:45:57.777Z,11.7855
2023-03-26T10:46:58.342Z,11.7355
2023-03-26T10:47:59.047Z,11.6889
2023-03-26T10:48:59.469Z,11.6651
2023-03-26T10:50:00.409Z,11.6669
2023-03-26T10:51:01.666Z,11.6928
2023-03-26T10:52:02.333Z,11.7214
2023-03-26T10:53:03.202Z,11.7491
2023-03-26T10:54:04.333Z,11.7855
2023-03-26T10:55:05.376Z,11.8238
2023-03-26T10:56:06.053Z,11.8714
2023-03-26T10:57:07.123Z,11.9293
2023-03-26T10:58:08.005Z,11.9815
2023-03-26T10:59:08.409Z,12.0466
2023-03-26T11:00:09.448Z,12.1273
2023-03-26T11:01:09.957Z,12.2033
2023-03-26T11:02:11.083Z,12.2691
2023-03-26T11:06:13.490Z,12.5413
2023-03-26T11:07:14.507Z,12.6001
2023-03-26T11:08:14.869Z,12.6398
2023-03-26T11:09:15.324Z,12.6694
2023-03-26T11:10:15.808Z,12.6540
2023-03-26T11:11:16.379Z,12.6174
2023-03-26T11:12:26.738Z,12.5751
2023-03-26T11:13:18.337Z,12.5370
2023-03-26T11:14:33.784Z,12.5325
2023-03-26T11:15:22.372Z,12.5541
2023-03-26T11:16:23.170Z,12.6116
2023-03-26T11:17:40.627Z,12.6751
2023-03-26T11:18:24.423Z,12.7375
2023-03-26T11:19:24.972Z,12.8025
2023-03-26T11:22:26.834Z,13.0295
2023-03-26T11:23:27.758Z,13.1305
2023-03-26T11:24:28.732Z,13.2044
2023-03-26T11:25:29.165Z,13.2722
2023-03-26T11:26:29.644Z,13.3495
2023-03-26T11:27:29.698Z,13.3970
2023-03-26T11:28:30.176Z,13.4013
2023-03-26T11:29:33.636Z,13.3529
2023-03-26T11:31:32.359Z,13.1991
2023-03-26T11:32:33.124Z,13.1360
2023-03-26T11:33:33.561Z,13.1100
2023-03-26T11:34:34.754Z,13.1133
2023-03-26T11:35:41.756Z,13.1331
2023-03-26T11:37:41.017Z,13.1919
2023-03-26T11:38:41.573Z,13.2079
2023-03-26T11:39:41.979Z,13.2434
2023-03-26T11:40:42.652Z,13.2891
2023-03-26T11:41:43.075Z,13.3223
2023-03-26T11:42:43.795Z,13.3467
2023-03-26T11:43:44.197Z,13.3641
2023-03-26T11:44:44.814Z,13.3694
2023-03-26T11:45:45.306Z,13.3841
2023-03-26T11:46:45.738Z,13.4173
2023-03-26T11:47:46.657Z,13.4704
2023-03-26T11:48:47.143Z,13.5344
2023-03-26T11:49:47.575Z,13.6109
2023-03-26T11:50:48.009Z,13.6647
2023-03-26T11:51:48.896Z,13.6782
2023-03-26T11:53:49.418Z,13.7590
2023-03-26T11:54:49.987Z,13.8438
2023-03-26T11:55:50.256Z,13.9324
2023-03-26T11:57:06.021Z,14.0009
2023-03-26T11:57:54.342Z,14.0513
2023-03-26T11:58:54.847Z,14.0825
2023-03-26T11:59:59.968Z,14.0829
2023-03-26T12:01:00.766Z,14.0797
2023-03-26T12:02:01.320Z,14.1090
2023-03-26T12:03:01.555Z,14.1640
2023-03-26T12:04:02.036Z,14.2606
2023-03-26T12:05:03.397Z,14.4017
2023-03-26T12:06:04.354Z,14.5812
2023-03-26T12:07:04.686Z,14.6843
2023-03-26T12:08:05.415Z,14.7128
2023-03-26T12:09:05.778Z,14.6747
2023-03-26T12:10:18.280Z,14.5834
2023-03-26T12:11:11.865Z,14.4100
2023-03-26T12:12:13.045Z,14.2214
2023-03-26T12:13:13.640Z,13.9896
2023-03-26T12:14:14.005Z,13.7341
2023-03-26T12:15:14.543Z,13.4633
2023-03-26T12:16:14.958Z,13.2019
2023-03-26T12:17:15.730Z,12.9703
2023-03-26T12:18:16.863Z,12.7589
2023-03-26T12:19:17.330Z,12.5685
2023-03-26T12:20:17.902Z,12.3673
2023-03-26T12:21:18.521Z,12.1689
2023-03-26T12:22:19.233Z,11.9829
2023-03-26T12:23:19.627Z,11.8145
2023-03-26T12:24:20.251Z,11.6832
2023-03-26T12:25:20.645Z,11.5811
2023-03-26T12:26:21.247Z,11.4836
2023-03-26T12:27:21.632Z,11.3802
2023-03-26T12:28:22.143Z,11.2597
2023-03-26T12:29:22.732Z,11.1301
2023-03-26T12:30:23.401Z,11.0059
2023-03-26T12:31:23.923Z,10.8793
2023-03-26T12:32:32.439Z,10.7489
2023-03-26T12:33:25.349Z,10.5618
2023-03-26T12:34:25.466Z,10.3171
2023-03-26T12:36:26.831Z,9.8254
2023-03-26T12:37:27.387Z,9.7429
2023-03-26T12:38:27.904Z,9.7376
2023-03-26T12:40:30.702Z,9.8895
2023-03-26T12:44:44.672Z,10.0353
2023-03-26T12:44:50.756Z,10.6500
2023-03-26T12:44:52.690Z,10.3151
2023-03-26T12:45:00.519Z,11.0281
2023-03-26T12:47:55.405Z,11.3141
2023-03-26T12:48:00.516Z,11.5477
2023-03-26T12:48:06.507Z,11.6648
2023-03-26T12:49:07.267Z,11.7227
2023-03-26T12:50:08.560Z,11.7612
2023-03-26T12:51:08.940Z,11.9018
2023-03-26T12:52:09.543Z,12.1270
2023-03-26T12:53:10.002Z,12.3848
2023-03-26T12:54:10.270Z,12.6612
2023-03-26T12:55:13.997Z,12.9230
2023-03-26T12:57:14.476Z,13.4633
2023-03-26T12:58:15.966Z,13.8388
2023-03-26T12:59:16.363Z,14.2795
2023-03-26T13:00:17.135Z,14.6974
2023-03-26T13:01:17.819Z,15.1034
2023-03-26T13:02:18.876Z,15.5222
2023-03-26T13:03:19.405Z,15.8698
2023-03-26T13:04:19.568Z,15.9930
2023-03-26T13:06:19.877Z,16.1799
2023-03-26T13:07:20.170Z,16.2775
2023-03-26T13:08:20.723Z,16.2679
2023-03-26T13:09:21.169Z,16.1429
2023-03-26T13:10:21.809Z,15.9619
2023-03-26T13:11:22.181Z,15.7379
2023-03-26T13:13:23.290Z,15.1516
2023-03-26T13:14:23.839Z,14.8294
2023-03-26T13:16:24.345Z,14.2817
2023-03-26T13:17:25.272Z,14.0593
2023-03-26T13:18:26.506Z,13.9002
2023-03-26T13:19:26.875Z,13.7870
2023-03-26T13:20:27.451Z,13.7094
2023-03-26T13:21:28.889Z,13.6884
2023-03-26T13:22:29.340Z,13.7162
2023-03-26T13:23:30.148Z,13.9239
2023-03-26T13:24:30.413Z,14.2669
2023-03-26T13:25:31.123Z,14.6058
2023-03-26T13:26:31.620Z,14.8892
2023-03-26T13:27:32.182Z,15.0579